createdAt,value
2022-08-09T00:00:59.069Z,75.52
2022-08-09T00:04:06.221Z,75.71
2022-08-09T00:06:22.778Z,76.17
2022-08-09T00:08:52.323Z,77.41
2022-08-09T00:11:56.829Z,77.28
2022-08-09T00:14:17.381Z,77.61
2022-08-09T00:16:57.004Z,76.90
2022-08-09T00:19:27.662Z,75.92
2022-08-09T00:21:57.120Z,75.47
2022-08-09T00:24:27.299Z,75.63
2022-08-09T00:26:57.381Z,75.96
2022-08-09T00:29:39.304Z,75.67
2022-08-09T00:32:26.641Z,75.63
2022-08-09T00:34:56.538Z,76.89
2022-08-09T00:37:27.067Z,78.68
2022-08-09T00:40:14.008Z,78.28
2022-08-09T00:44:13.010Z,77.83
2022-08-09T00:45:35.266Z,78.00
2022-08-09T00:48:04.820Z,78.14
2022-08-09T00:50:34.040Z,78.59
2022-08-09T00:53:10.486Z,78.75
2022-08-09T00:56:04.537Z,78.50
2022-08-09T00:58:31.650Z,79.72
2022-08-09T01:01:00.412Z,77.30
2022-08-09T01:03:45.571Z,77.75
2022-08-09T01:06:54.542Z,77.82
2022-08-09T01:09:36.887Z,77.89
2022-08-09T01:12:41.047Z,78.73
2022-08-09T01:15:16.813Z,79.44
2022-08-09T01:17:57.623Z,80.51
2022-08-09T01:20:45.383Z,80.52
2022-08-09T01:24:02.903Z,80.57
2022-08-09T01:26:54.093Z,80.58
2022-08-09T01:29:55.775Z,79.37
2022-08-09T01:32:47.530Z,79.48
2022-08-09T01:35:38.725Z,79.24
2022-08-09T01:38:15.414Z,76.84
2022-08-09T01:41:02.954Z,76.83
2022-08-09T01:43:42.018Z,77.65
2022-08-09T01:46:25.013Z,79.26
2022-08-09T01:49:10.631Z,80.65
2022-08-09T01:51:54.195Z,80.43
2022-08-09T01:54:45.988Z,79.81
2022-08-09T01:57:23.913Z,78.87
2022-08-09T02:00:00.325Z,78.31
2022-08-09T02:02:43.545Z,78.85
2022-08-09T02:05:16.192Z,78.74
2022-08-09T02:08:38.948Z,79.28
2022-08-09T02:10:40.151Z,78.31
2022-08-09T02:13:13.693Z,77.95
2022-08-09T02:15:50.284Z,78.22
2022-08-09T02:18:25.367Z,79.22
2022-08-09T02:21:03.166Z,78.79
2022-08-09T02:23:40.128Z,79.58
2022-08-09T02:26:25.094Z,79.84
2022-08-09T02:28:59.658Z,80.00
2022-08-09T02:31:36.189Z,79.83
2022-08-09T02:34:13.602Z,78.48
2022-08-09T02:36:57.087Z,79.29
2022-08-09T02:39:41.806Z,79.54
2022-08-09T02:42:18.239Z,79.24
2022-08-09T02:44:50.507Z,77.52
2022-08-09T02:47:21.509Z,78.32
2022-08-09T02:50:04.983Z,78.04
2022-08-09T02:52:56.275Z,78.20
2022-08-09T02:55:46.579Z,79.23
2022-08-09T02:58:36.009Z,80.26
2022-08-09T03:01:10.879Z,81.82
2022-08-09T03:04:17.193Z,83.10
2022-08-09T03:06:35.050Z,82.92
2022-08-09T03:09:07.893Z,83.57
2022-08-09T03:12:10.389Z,82.62
2022-08-09T03:14:29.632Z,81.66
2022-08-09T03:17:01.908Z,81.93
2022-08-09T03:19:58.370Z,82.10
2022-08-09T03:22:25.380Z,81.57
2022-08-09T03:25:26.775Z,80.92
2022-08-09T03:27:51.902Z,80.48
2022-08-09T03:30:29.847Z,79.57
2022-08-09T03:33:17.768Z,79.94
2022-08-09T03:36:14.096Z,81.13
2022-08-09T03:38:42.153Z,80.70
2022-08-09T03:41:16.621Z,79.85
2022-08-09T03:44:03.265Z,80.63
2022-08-09T03:46:36.925Z,81.40
2022-08-09T03:49:08.473Z,80.91
2022-08-09T03:51:55.297Z,81.25
2022-08-09T03:54:32.226Z,81.52
2022-08-09T03:57:04.538Z,81.00
2022-08-09T03:59:56.030Z,80.06
2022-08-09T04:02:28.223Z,80.70
2022-08-09T04:05:05.689Z,79.68
2022-08-09T04:07:52.725Z,80.78
2022-08-09T04:10:28.434Z,81.24
2022-08-09T04:13:11.340Z,81.28
2022-08-09T04:16:18.697Z,81.58
2022-08-09T04:18:28.937Z,81.35
2022-08-09T04:20:57.306Z,81.11
2022-08-09T04:23:25.872Z,81.61
2022-08-09T04:25:55.070Z,81.91
2022-08-09T04:28:33.102Z,82.09
2022-08-09T04:31:09.037Z,81.92
2022-08-09T04:33:51.516Z,82.25
2022-08-09T04:36:24.589Z,82.24
2022-08-09T04:38:59.994Z,81.48
2022-08-09T04:41:33.186Z,81.13
2022-08-09T04:44:11.216Z,80.74
2022-08-09T04:46:59.993Z,80.35
2022-08-09T04:49:54.816Z,79.58
2022-08-09T04:52:28.263Z,79.53
2022-08-09T04:54:59.609Z,80.04
2022-08-09T04:57:58.969Z,79.28
2022-08-09T05:00:17.346Z,79.85
2022-08-09T05:02:51.675Z,79.26
2022-08-09T05:05:32.353Z,77.55
2022-08-09T05:08:14.093Z,77.71
2022-08-09T05:10:44.411Z,76.89
2022-08-09T05:13:13.068Z,75.63
2022-08-09T05:15:52.126Z,76.78
2022-08-09T05:18:39.192Z,79.19
2022-08-09T05:21:22.848Z,79.89
2022-08-09T05:24:00.577Z,78.83
2022-08-09T05:26:36.506Z,77.81
2022-08-09T05:29:17.530Z,77.26
2022-08-09T05:31:56.695Z,78.38
2022-08-09T05:34:32.509Z,76.99
2022-08-09T05:37:06.887Z,77.33
2022-08-09T05:39:43.787Z,76.87
2022-08-09T05:42:21.298Z,76.36
2022-08-09T05:44:54.887Z,76.47
2022-08-09T05:47:24.745Z,76.50
2022-08-09T05:50:35.108Z,75.66
2022-08-09T05:52:44.343Z,75.76
2022-08-09T05:55:20.723Z,74.88
2022-08-09T05:57:56.860Z,74.69
2022-08-09T06:00:28.851Z,75.01
2022-08-09T06:03:02.661Z,74.33
2022-08-09T06:05:56.883Z,74.91
2022-08-09T06:08:24.504Z,73.34
2022-08-09T06:10:58.115Z,73.76
2022-08-09T06:13:28.584Z,71.50
2022-08-09T06:16:04.805Z,71.58
2022-08-09T06:18:34.864Z,71.85
2022-08-09T06:21:04.441Z,71.96
2022-08-09T06:23:58.785Z,69.35
2022-08-09T06:26:28.664Z,66.95
2022-08-09T06:29:00.190Z,66.47
2022-08-09T06:31:30.660Z,67.37
2022-08-09T06:34:00.026Z,64.98
2022-08-09T06:36:29.886Z,65.51
2022-08-09T06:38:58.346Z,65.21
2022-08-09T06:42:07.687Z,64.99
2022-08-09T06:44:18.390Z,64.83
2022-08-09T06:46:49.740Z,64.11
2022-08-09T06:49:44.613Z,64.27
2022-08-09T06:52:15.882Z,64.41
2022-08-09T06:54:44.332Z,64.38
2022-08-09T06:57:13.477Z,63.72
2022-08-09T07:00:50.248Z,62.38
2022-08-09T07:02:32.189Z,60.57
2022-08-09T07:05:01.052Z,61.35
2022-08-09T07:08:00.331Z,58.18
2022-08-09T07:10:29.457Z,57.69
2022-08-09T07:12:59.922Z,58.79
2022-08-09T07:16:38.603Z,56.45
2022-08-09T07:18:17.033Z,55.92
2022-08-09T07:20:47.800Z,55.92
2022-08-09T07:23:19.097Z,54.81
2022-08-09T07:25:52.548Z,54.63
2022-08-09T07:28:34.669Z,56.02
2022-08-09T07:31:04.990Z,53.37
2022-08-09T07:33:52.938Z,53.29
2022-08-09T07:36:22.280Z,55.43
2022-08-09T07:39:00.369Z,53.90
2022-08-09T07:41:33.002Z,54.08
2022-08-09T07:44:06.934Z,51.28
2022-08-09T07:46:37.373Z,52.01
2022-08-09T07:49:08.353Z,51.19
2022-08-09T07:52:04.614Z,50.89
2022-08-09T07:54:32.214Z,48.99
2022-08-09T07:57:01.004Z,47.80
2022-08-09T07:59:34.395Z,47.54
2022-08-09T08:02:19.072Z,47.47
2022-08-09T08:04:49.229Z,44.89
2022-08-09T08:08:42.766Z,46.52
2022-08-09T08:10:11.316Z,44.29
2022-08-09T08:12:45.110Z,44.75
2022-08-09T08:15:24.346Z,45.30
2022-08-09T08:17:57.887Z,43.72
2022-08-09T08:20:30.458Z,43.54
2022-08-09T08:23:16.028Z,44.74
2022-08-09T08:25:49.806Z,42.82
2022-08-09T08:28:32.087Z,43.07
2022-08-09T08:31:14.164Z,42.11
2022-08-09T08:33:53.723Z,42.47
2022-08-09T08:36:29.303Z,42.13
2022-08-09T08:39:00.062Z,42.42
2022-08-09T08:41:41.816Z,40.33
2022-08-09T08:44:23.132Z,39.62
2022-08-09T08:47:04.428Z,38.95
2022-08-09T08:49:47.676Z,39.63
2022-08-09T08:55:08.278Z,41.46
2022-08-09T08:57:37.898Z,39.61
2022-08-09T09:00:16.772Z,39.18
2022-08-09T09:02:52.946Z,38.94
2022-08-09T09:05:32.914Z,39.65
2022-08-09T09:08:29.351Z,37.65
2022-08-09T09:11:05.461Z,37.06
2022-08-09T09:13:55.903Z,35.41
2022-08-09T09:16:34.076Z,36.99
2022-08-09T09:22:15.958Z,37.39
2022-08-09T09:24:55.545Z,35.04
2022-08-09T09:28:06.116Z,36.74
2022-08-09T09:30:37.996Z,36.11
2022-08-09T09:33:14.394Z,36.23
2022-08-09T09:36:01.387Z,36.60
2022-08-09T09:38:40.227Z,35.39
2022-08-09T09:41:10.794Z,35.21
2022-08-09T09:43:41.238Z,35.53
2022-08-09T09:46:43.034Z,34.80
2022-08-09T09:49:32.157Z,34.92
2022-08-09T09:52:33.710Z,36.20
2022-08-09T09:55:27.662Z,35.60
2022-08-09T09:58:16.155Z,36.21
2022-08-09T10:00:58.782Z,36.49
2022-08-09T10:03:57.524Z,35.24
2022-08-09T10:06:43.474Z,36.66
2022-08-09T10:09:22.279Z,36.41
2022-08-09T10:12:14.403Z,36.84
2022-08-09T10:14:49.050Z,36.54
2022-08-09T10:17:39.836Z,37.09
2022-08-09T10:20:32.624Z,39.14
2022-08-09T10:23:24.981Z,38.75
2022-08-09T10:26:06.837Z,39.99
2022-08-09T10:28:41.383Z,41.11
2022-08-09T10:34:10.035Z,39.30
2022-08-09T10:36:56.701Z,41.83
2022-08-09T10:39:28.438Z,42.25
2022-08-09T10:41:57.477Z,41.81
2022-08-09T10:44:30.458Z,42.42
2022-08-09T10:47:04.143Z,42.72
2022-08-09T10:50:30.766Z,43.81
2022-08-09T10:53:05.274Z,38.88
2022-08-09T10:55:55.668Z,39.33
2022-08-09T10:58:34.726Z,37.52
2022-08-09T11:03:02.734Z,39.95
2022-08-09T11:04:28.158Z,37.18
2022-08-09T11:07:00.953Z,36.09
2022-08-09T11:09:41.437Z,38.19
2022-08-09T11:12:20.034Z,37.58
2022-08-09T11:14:57.393Z,38.08
2022-08-09T11:17:26.280Z,39.43
2022-08-09T11:20:19.844Z,38.58
2022-08-09T11:22:56.923Z,39.86
2022-08-09T11:25:44.975Z,39.50
2022-08-09T11:28:34.528Z,40.67
2022-08-09T11:31:34.099Z,41.26
2022-08-09T11:34:10.283Z,41.47
2022-08-09T11:36:44.294Z,40.72
2022-08-09T11:39:12.573Z,40.41
2022-08-09T11:41:45.415Z,42.66
2022-08-09T11:44:13.629Z,41.08
2022-08-09T11:46:54.066Z,42.53
2022-08-09T11:50:53.772Z,41.99
2022-08-09T11:53:57.816Z,42.76
2022-08-09T11:56:02.781Z,42.28
2022-08-09T11:58:33.617Z,41.75
2022-08-09T12:01:15.370Z,41.76
2022-08-09T12:04:20.908Z,43.39
2022-08-09T12:06:57.141Z,42.27
2022-08-09T12:09:33.600Z,42.31
2022-08-09T12:12:13.173Z,40.36
2022-08-09T12:15:07.590Z,42.83
2022-08-09T12:17:43.298Z,42.29
2022-08-09T12:20:21.786Z,40.51
2022-08-09T12:22:56.392Z,41.73
2022-08-09T12:25:36.016Z,43.22
2022-08-09T12:29:15.497Z,42.26
2022-08-09T12:31:02.992Z,42.39
2022-08-09T12:33:58.604Z,41.80
2022-08-09T12:36:32.031Z,42.32
2022-08-09T12:39:02.475Z,42.16
2022-08-09T12:41:39.117Z,41.32
2022-08-09T12:44:10.053Z,42.21
2022-08-09T12:46:49.083Z,41.06
2022-08-09T12:49:20.950Z,40.32
2022-08-09T12:52:02.567Z,41.33
2022-08-09T12:56:12.209Z,41.49
2022-08-09T12:57:47.056Z,45.14
2022-08-09T13:00:18.424Z,41.68
2022-08-09T13:02:59.974Z,43.48
2022-08-09T13:05:51.512Z,44.33
2022-08-09T13:08:40.158Z,42.92
2022-08-09T13:11:22.832Z,44.76
2022-08-09T13:14:37.041Z,45.41
2022-08-09T13:16:53.533Z,48.22
2022-08-09T13:20:09.413Z,43.14
2022-08-09T13:22:36.418Z,44.06
2022-08-09T13:25:07.652Z,42.71
2022-08-09T13:27:39.411Z,42.68
2022-08-09T13:30:49.173Z,42.70
2022-08-09T13:33:04.681Z,44.36
2022-08-09T13:35:34.781Z,42.41
2022-08-09T13:38:55.937Z,41.47
2022-08-09T13:41:46.924Z,42.48
2022-08-09T13:43:58.160Z,40.93
2022-08-09T13:47:16.103Z,41.05
2022-08-09T13:49:18.499Z,41.40
2022-08-09T13:52:00.554Z,41.98
2022-08-09T13:54:30.401Z,41.79
2022-08-09T13:56:58.981Z,41.06
2022-08-09T13:59:27.453Z,41.30
2022-08-09T14:02:10.456Z,42.16
2022-08-09T14:04:38.954Z,41.77
2022-08-09T14:07:17.773Z,41.28
2022-08-09T14:09:47.122Z,41.74
2022-08-09T14:12:21.575Z,43.14
2022-08-09T14:14:53.664Z,39.19
2022-08-09T14:17:22.713Z,40.87
2022-08-09T14:19:52.636Z,40.96
2022-08-09T14:22:21.971Z,42.12
2022-08-09T14:24:54.020Z,40.27
2022-08-09T14:27:22.888Z,40.82
2022-08-09T14:30:34.863Z,41.21
2022-08-09T14:32:43.998Z,41.05
2022-08-09T14:35:12.315Z,40.60
2022-08-09T14:38:01.330Z,41.21
2022-08-09T14:41:01.254Z,40.98
2022-08-09T14:43:18.716Z,41.15
2022-08-09T14:46:54.808Z,42.00
2022-08-09T14:48:35.870Z,42.69
2022-08-09T14:51:05.371Z,41.51
2022-08-09T14:53:33.533Z,42.32
2022-08-09T14:56:08.524Z,41.47
2022-08-09T14:58:44.024Z,41.30
2022-08-09T15:01:13.179Z,41.46
2022-08-09T15:03:42.130Z,42.41
2022-08-09T15:06:14.810Z,42.72
2022-08-09T15:08:43.265Z,41.76
2022-08-09T15:11:11.489Z,42.43
2022-08-09T15:13:56.119Z,41.42
2022-08-09T15:16:30.401Z,42.37
2022-08-09T15:19:02.486Z,41.39
2022-08-09T15:21:55.526Z,42.84
2022-08-09T15:24:27.562Z,41.70
2022-08-09T15:26:56.185Z,41.79
2022-08-09T15:30:58.205Z,41.96
2022-08-09T15:32:29.439Z,41.73
2022-08-09T15:35:18.395Z,41.12
2022-08-09T15:38:10.985Z,41.33
2022-08-09T15:40:43.933Z,41.61
2022-08-09T15:43:13.711Z,41.83
2022-08-09T15:46:07.616Z,41.05
2022-08-09T15:48:32.062Z,41.90
2022-08-09T15:51:01.325Z,41.77
2022-08-09T15:54:05.154Z,42.43
2022-08-09T15:56:28.933Z,41.60
2022-08-09T15:58:59.061Z,42.09
2022-08-09T16:01:27.596Z,42.37
2022-08-09T16:04:00.065Z,41.91
2022-08-09T16:06:35.764Z,41.56
2022-08-09T16:09:06.563Z,41.34
2022-08-09T16:11:34.894Z,42.95
2022-08-09T16:14:06.880Z,42.23
2022-08-09T16:16:38.048Z,42.02
2022-08-09T16:19:13.536Z,41.60
2022-08-09T16:21:52.013Z,41.83
2022-08-09T16:24:33.251Z,42.16
2022-08-09T16:27:05.192Z,41.93
2022-08-09T16:29:38.014Z,42.71
2022-08-09T16:32:34.105Z,42.59
2022-08-09T16:35:03.250Z,41.82
2022-08-09T16:37:53.405Z,41.75
2022-08-09T16:40:40.280Z,41.87
2022-08-09T16:43:09.906Z,42.45
2022-08-09T16:45:43.756Z,42.29
2022-08-09T16:48:41.797Z,41.98
2022-08-09T16:51:07.637Z,42.02
2022-08-09T16:53:37.300Z,41.70
2022-08-09T16:56:10.297Z,41.93
2022-08-09T16:58:42.556Z,41.94
2022-08-09T17:01:19.431Z,42.83
2022-08-09T17:03:55.208Z,42.42
2022-08-09T17:06:31.813Z,42.89
2022-08-09T17:09:16.194Z,43.76
2022-08-09T17:11:52.448Z,43.40
2022-08-09T17:14:27.915Z,44.19
2022-08-09T17:16:59.512Z,43.91
2022-08-09T17:20:05.091Z,42.94
2022-08-09T17:22:25.111Z,43.68
2022-08-09T17:25:10.239Z,43.99
2022-08-09T17:27:49.128Z,44.50
2022-08-09T17:30:19.789Z,43.75
2022-08-09T17:32:48.550Z,43.82
2022-08-09T17:35:16.948Z,43.89
2022-08-09T17:38:12.452Z,43.76
2022-08-09T17:40:34.995Z,44.56
2022-08-09T17:43:32.763Z,44.09
2022-08-09T17:46:03.389Z,44.11
2022-08-09T17:48:46.490Z,43.50
2022-08-09T17:51:21.660Z,42.87
2022-08-09T17:53:54.926Z,42.85
2022-08-09T17:56:35.757Z,42.98
2022-08-09T17:59:09.104Z,43.49
2022-08-09T18:02:12.792Z,44.31
2022-08-09T18:04:29.874Z,44.14
2022-08-09T18:06:59.237Z,43.82
2022-08-09T18:09:40.688Z,43.68
2022-08-09T18:12:20.177Z,44.17
2022-08-09T18:14:54.969Z,44.89
2022-08-09T18:17:27.599Z,44.68
2022-08-09T18:20:56.930Z,45.09
2022-08-09T18:23:07.403Z,44.99
2022-08-09T18:25:51.219Z,45.15
2022-08-09T18:30:38.264Z,45.73
2022-08-09T18:31:11.964Z,46.02
2022-08-09T18:33:40.781Z,45.89
2022-08-09T18:36:14.395Z,46.45
2022-08-09T18:39:00.918Z,45.65
2022-08-09T18:41:34.350Z,44.04
2022-08-09T18:44:13.295Z,44.53
2022-08-09T18:46:47.708Z,43.21
2022-08-09T18:49:27.369Z,43.42
2022-08-09T18:52:00.062Z,42.78
2022-08-09T18:54:30.150Z,41.90
2022-08-09T18:57:06.000Z,41.53
2022-08-09T18:59:36.998Z,41.72
2022-08-09T19:02:07.309Z,42.06
2022-08-09T19:04:35.986Z,41.40
2022-08-09T19:07:05.322Z,41.21
2022-08-09T19:10:15.747Z,41.53
2022-08-09T19:12:25.686Z,40.30
2022-08-09T19:14:54.273Z,40.54
2022-08-09T19:17:22.498Z,40.15
2022-08-09T19:19:51.304Z,40.31
2022-08-09T19:22:28.680Z,39.74
2022-08-09T19:25:10.025Z,39.43
2022-08-09T19:27:45.848Z,38.86
2022-08-09T19:30:23.167Z,39.34
2022-08-09T19:32:56.530Z,39.76
2022-08-09T19:35:28.885Z,39.10
2022-08-09T19:38:16.944Z,39.31
2022-08-09T19:40:46.245Z,38.36
2022-08-09T19:43:58.114Z,38.74
2022-08-09T19:46:14.367Z,38.64
2022-08-09T19:49:01.036Z,38.54
2022-08-09T19:51:31.795Z,38.62
2022-08-09T19:54:06.866Z,38.88
2022-08-09T19:56:39.847Z,39.27
2022-08-09T19:59:39.534Z,39.06
2022-08-09T20:02:08.019Z,39.23
2022-08-09T20:04:53.032Z,39.25
2022-08-09T20:07:57.111Z,39.57
2022-08-09T20:10:17.824Z,40.15
2022-08-09T20:12:51.948Z,40.63
2022-08-09T20:16:32.806Z,40.14
2022-08-09T20:18:10.524Z,41.39
2022-08-09T20:20:40.900Z,41.39
2022-08-09T20:23:09.786Z,41.46
2022-08-09T20:25:38.205Z,41.86
2022-08-09T20:28:24.452Z,42.01
2022-08-09T20:31:04.802Z,42.84
2022-08-09T20:33:38.946Z,42.81
2022-08-09T20:36:10.602Z,43.19
2022-08-09T20:41:34.986Z,43.12
2022-08-09T20:44:10.550Z,42.98
2022-08-09T20:46:42.663Z,43.10
2022-08-09T20:49:15.809Z,42.81
2022-08-09T20:51:50.667Z,42.40
2022-08-09T20:54:19.481Z,43.73
2022-08-09T20:56:49.862Z,43.67
2022-08-09T20:59:50.166Z,43.58
2022-08-09T21:02:17.803Z,43.86
2022-08-09T21:05:56.646Z,43.91
2022-08-09T21:07:40.197Z,44.00
2022-08-09T21:10:11.892Z,44.01
2022-08-09T21:12:40.332Z,44.79
2022-08-09T21:15:12.437Z,44.22
2022-08-09T21:18:21.742Z,43.43
2022-08-09T21:20:32.216Z,44.04
2022-08-09T21:23:00.953Z,44.91
2022-08-09T21:25:55.962Z,44.20
2022-08-09T21:28:34.930Z,44.45
2022-08-09T21:31:17.959Z,44.22
2022-08-09T21:33:51.303Z,44.42
2022-08-09T21:36:27.842Z,44.20
2022-08-09T21:38:59.559Z,43.94
2022-08-09T21:42:05.478Z,44.30
2022-08-09T21:44:34.367Z,46.55
2022-08-09T21:47:08.851Z,44.46
2022-08-09T21:49:40.587Z,44.09
2022-08-09T21:52:16.499Z,44.70
2022-08-09T21:55:03.521Z,45.01
2022-08-09T21:57:39.635Z,44.11
2022-08-09T22:00:33.201Z,44.68
2022-08-09T22:03:12.576Z,45.67
2022-08-09T22:05:51.147Z,44.88
2022-08-09T22:08:22.917Z,45.51
2022-08-09T22:11:50.167Z,45.64
2022-08-09T22:13:44.544Z,45.59
2022-08-09T22:16:12.868Z,46.15
2022-08-09T22:18:54.553Z,46.57
2022-08-09T22:21:44.736Z,46.29
2022-08-09T22:24:16.780Z,45.37
2022-08-09T22:26:51.835Z,44.44
2022-08-09T22:29:28.971Z,44.61
2022-08-09T22:32:02.012Z,44.62
2022-08-09T22:34:30.577Z,44.43
2022-08-09T22:36:59.559Z,45.20
2022-08-09T22:39:57.936Z,44.07
2022-08-09T22:42:20.752Z,44.35
2022-08-09T22:45:11.568Z,45.15
2022-08-09T22:48:15.662Z,44.27
2022-08-09T22:50:30.923Z,45.31
2022-08-09T22:53:03.771Z,44.77
2022-08-09T22:56:06.366Z,44.59
2022-08-09T22:58:32.107Z,44.92
2022-08-09T23:01:04.220Z,43.80
2022-08-09T23:04:05.485Z,45.17
2022-08-09T23:06:35.118Z,46.14
2022-08-09T23:09:07.771Z,45.88
2022-08-09T23:11:36.460Z,45.20
2022-08-09T23:14:09.995Z,45.12
2022-08-09T23:16:45.752Z,45.31
2022-08-09T23:19:13.945Z,45.34
2022-08-09T23:21:42.352Z,46.32
2022-08-09T23:24:11.567Z,45.27
2022-08-09T23:26:40.562Z,45.17
2022-08-09T23:29:13.483Z,44.80
2022-08-09T23:31:42.204Z,45.18
2022-08-09T23:34:10.575Z,45.49
2022-08-09T23:36:38.860Z,46.18
2022-08-09T23:39:08.194Z,45.85
2022-08-09T23:41:36.622Z,46.08
2022-08-09T23:44:05.104Z,45.88
2022-08-09T23:46:33.765Z,45.60
2022-08-09T23:49:02.214Z,45.62
2022-08-09T23:51:30.453Z,46.27
2022-08-09T23:54:02.371Z,45.58
2022-08-09T23:56:52.571Z,46.42
2022-08-09T23:59:24.339Z,47.07
